Airfield :
LOGIN :

Register | Disclaimer

   EN    FR    IT 

 










Legend :    VFR   Marginal VFR   IFR   Intensive IFR   Very Intensive IFR
Visi :
Ceiling :
>= 8 km
>= 3000ft
5 to 8 km
1000 to 3000 ft
1500m to 5 km
500 to 1000 ft
800 to 1500m
200 to 500 ft
< 800m
< 200 ft
Symbols :   Thunderstorms  Fog  Heavy snow  Heavy precipitations  Wind > 20 kt
SIGMETs :     Misc.  Thunderstorms  Icing  Turbulence  Mountain Waves  Volcanic Ashes







- Airport Elevation : 53 ft
- IATA code : HAM


EDDH - Hamburg

CURRENT METAR :
  • 250820Z 24021G32KT 210V270 9999 FEW022 BKN025 14/09 Q1001 NOSIG

EXPIRED METARs :
  • 250750Z 24016G29KT 9999 SCT018 SCT023 14/10 Q1000 NOSIG
  • 250720Z 24012KT 210V270 9999 FEW013 BKN019 13/11 Q1001 TEMPO 24015G30KT BKN012
  • 250650Z 24013KT 9999 -SHRA SCT015 BKN020 13/11 Q1001 TEMPO 24015G30KT BKN012
  • 250620Z 24013G23KT 210V270 8000 -SHRA FEW011 SCT018TCU BKN035 13/10 Q1001 TEMPO BKN012
  • 250550Z 22013KT 9000 VCSH FEW017 SCT021 BKN034 13/11 Q1001 TEMPO 21015G25KT

TAF TAF EDDH
Valid from the 25 at 06:00 until the 26 at 12:00 UTC


250500Z 2506/2612 22015G25KT 9999 BKN020
PROB30
TEMPO 2506/2512 BKN014
TEMPO 2507/2511 29020G35KT
BECMG 2512/2514 28010KT
BECMG 2516/2518 24005KT
PROB30
TEMPO 2516/2519 SHRA BKN012CB
TEMPO 2604/2612 4500 SHRA BKN009CB
PROB30
TEMPO 2606/2611 TSRA
BECMG 2607/2609 25010KT
TEMPO 2610/2612 27015G30KT
No reported NOTAMs for that airfield.



MET'MAP, your aeronautical weather chart ! - Copyright ORBIFLY December 2007 - Disclaimer

ORBIFLY MET'MAP TEAM :

Programming & Development : Alexandra Zaïnal
Concept & Development : Baudouin d'Aumeries
Co-Development & Prog : Marc-Olivier Méhu
Technical & hardware support : Manuel Goepfert

Contact : metmap@orbifly.com




SOURCES & CREDITS :

   NOAA